Aeroporto :
LOGIN :

Iscrizione | Disclaimer

   EN    FR    IT 

 










Sommario :    VFR   VFR Marginale   IFR   IFR Intensivo   IFR Molto Intensivo
Visibilità : 
Base nubi : 
>= 8 km
>= 3000ft
5 / 8 km
1000 / 3000 ft
1500m / 5 km
500 / 1000 ft
800 / 1500m
200 / 500 ft
< 800m
< 200 ft
Simboli :   Temporali  Nebbia  Neve Forte  Precipitazioni Forti  Vento > 20 kt
SIGMETs :   Varie  Temporali  Ghiacco  Turbolenza  Onda orograficha  Ceneri Vulcaniche






- Altitudine del aeroporto : 236 ft
- Codice IATA : MMX


ESMS - Malmö Sturup

ULTIMO METAR :
  • 070920Z 17011KT 140V200 9999 FEW025 16/10 Q1006

METARs OBSOLETI :
  • 070850Z 17010KT CAVOK 16/10 Q1005
  • 070820Z 17012KT 9999 FEW021 15/09 Q1005
  • 070750Z 16009KT 9999 FEW030 13/10 Q1005
  • 070720Z 16010KT 9999 -RA NSC 13/10 Q1005
  • 070650Z 16009KT CAVOK 14/10 Q1005

TAF TAF ESMS
Valido dal 07 a 06 ore il 08 a 06 ore UTC


070513Z 0706/0806 16008KT 9999 SCT030
TEMPO 0712/0720 FEW025CB



MetMap, La meteo Aeronautica in un colpo d'occhio ! - Copyright ORBIFLY Dicembre 2007 - Disclaimer

ORBIFLY MET'MAP TEAM :

Programmazione e sviluppo : Alexandra Zaïnal
Concezione : Baudouin d'Aumeries
Aiuto per la programmazione : Marc-Olivier Méhu
Supporto tecnico e logistico : Manuel Goepfert
Aiuto per la traduzione : Arnaldo La Scala

Contatto : metmap@orbifly.com




FONTI E CREDITI :

   NOAA